createdAt,value
2016-09-13T00:00:42.661Z,92.93
2016-09-13T00:01:29.189Z,92.84
2016-09-13T00:02:36.544Z,93.04
2016-09-13T00:03:42.494Z,92.99
2016-09-13T00:04:39.854Z,92.99
2016-09-13T00:05:38.132Z,92.97
2016-09-13T00:06:28.301Z,93.43
2016-09-13T00:07:41.393Z,93.25
2016-09-13T00:08:29.535Z,93.59
2016-09-13T00:09:34.613Z,93.84
2016-09-13T00:10:42.130Z,93.73
2016-09-13T00:11:41.388Z,93.60
2016-09-13T00:12:38.014Z,93.93
2016-09-13T00:13:40.344Z,93.66
2016-09-13T00:14:37.815Z,93.66
2016-09-13T00:15:35.951Z,93.69
2016-09-13T00:16:34.109Z,93.54
2016-09-13T00:17:34.125Z,93.60
2016-09-13T00:18:42.135Z,93.47
2016-09-13T00:19:38.530Z,93.75
2016-09-13T00:20:37.535Z,93.77
2016-09-13T00:21:34.185Z,93.67
2016-09-13T00:22:41.458Z,93.62
2016-09-13T00:24:41.208Z,93.81
2016-09-13T00:25:42.627Z,94.02
2016-09-13T00:26:41.984Z,94.25
2016-09-13T00:27:36.603Z,94.02
2016-09-13T00:28:40.458Z,94.13
2016-09-13T00:29:41.914Z,93.81
2016-09-13T00:31:41.419Z,93.50
2016-09-13T00:33:24.679Z,93.39
2016-09-13T00:34:34.785Z,94.31
2016-09-13T00:35:37.191Z,94.30
2016-09-13T00:36:41.529Z,94.17
2016-09-13T00:37:40.400Z,94.07
2016-09-13T00:38:36.818Z,93.91
2016-09-13T00:39:42.129Z,94.11
2016-09-13T00:41:34.491Z,94.04
2016-09-13T00:42:28.720Z,94.11
2016-09-13T00:43:37.165Z,93.81
2016-09-13T00:44:34.584Z,93.93
2016-09-13T00:45:37.339Z,94.37
2016-09-13T00:46:34.025Z,94.07
2016-09-13T00:47:42.006Z,94.47
2016-09-13T00:49:34.044Z,94.25
2016-09-13T00:50:36.421Z,94.02
2016-09-13T00:51:28.407Z,93.95
2016-09-13T00:52:42.753Z,94.10
2016-09-13T00:54:52.388Z,94.30
2016-09-13T00:55:37.582Z,95.16
2016-09-13T00:56:28.747Z,94.41
2016-09-13T00:57:25.840Z,94.30
2016-09-13T00:58:29.066Z,94.03
2016-09-13T00:59:36.439Z,94.52
2016-09-13T01:00:54.211Z,94.79
2016-09-13T01:01:29.377Z,94.20
2016-09-13T01:02:24.531Z,94.13
2016-09-13T01:03:28.777Z,94.13
2016-09-13T01:04:44.168Z,94.54
2016-09-13T01:05:37.002Z,94.36
2016-09-13T01:06:39.429Z,94.39
2016-09-13T01:07:40.890Z,94.67
2016-09-13T01:08:38.184Z,94.55
2016-09-13T01:09:29.440Z,94.32
2016-09-13T01:10:34.912Z,94.29
2016-09-13T01:11:40.557Z,94.32
2016-09-13T01:12:31.032Z,94.20
2016-09-13T01:13:39.296Z,93.97
2016-09-13T01:14:24.469Z,93.86
2016-09-13T01:15:32.456Z,93.90
2016-09-13T01:17:40.125Z,94.74
2016-09-13T01:18:26.284Z,95.45
2016-09-13T01:19:33.531Z,95.39
2016-09-13T01:20:30.191Z,95.93
2016-09-13T01:21:28.437Z,96.05
2016-09-13T01:22:35.526Z,96.49
2016-09-13T01:23:33.717Z,95.97
2016-09-13T01:24:31.232Z,95.70
2016-09-13T01:26:25.494Z,94.90
2016-09-13T01:27:34.127Z,94.40
2016-09-13T01:28:29.309Z,94.42
2016-09-13T01:29:37.622Z,94.40
2016-09-13T01:30:36.896Z,93.96
2016-09-13T01:31:35.323Z,94.22
2016-09-13T01:33:32.755Z,94.58
2016-09-13T01:35:37.645Z,94.45
2016-09-13T01:36:40.967Z,94.19
2016-09-13T01:37:41.305Z,94.17
2016-09-13T01:38:43.400Z,94.02
2016-09-13T01:39:28.635Z,94.46
2016-09-13T01:42:39.964Z,94.30
2016-09-13T01:43:35.260Z,94.10
2016-09-13T01:44:36.656Z,94.05
2016-09-13T01:45:28.877Z,94.02
2016-09-13T01:46:29.345Z,94.09
2016-09-13T01:47:28.125Z,94.19
2016-09-13T01:48:23.494Z,94.20
2016-09-13T01:49:29.307Z,94.08
2016-09-13T01:51:34.695Z,94.72
2016-09-13T01:52:34.906Z,94.49
2016-09-13T01:53:36.272Z,94.83
2016-09-13T01:54:33.928Z,94.68
2016-09-13T01:55:38.291Z,94.93
2016-09-13T01:56:36.641Z,95.04
2016-09-13T01:57:28.856Z,94.77
2016-09-13T01:58:43.222Z,94.79
2016-09-13T01:59:36.036Z,94.88
2016-09-13T02:00:30.524Z,94.87
2016-09-13T02:01:30.855Z,94.91
2016-09-13T02:02:34.921Z,94.89
2016-09-13T02:03:41.934Z,94.72
2016-09-13T02:04:28.601Z,94.16
2016-09-13T02:05:28.637Z,94.44
2016-09-13T02:06:34.777Z,94.58
2016-09-13T02:07:29.007Z,94.58
2016-09-13T02:08:43.523Z,94.55
2016-09-13T02:09:29.754Z,94.58
2016-09-13T02:11:07.556Z,94.63
2016-09-13T02:11:25.274Z,94.79
2016-09-13T02:12:24.406Z,94.84
2016-09-13T02:13:38.708Z,94.71
2016-09-13T02:14:24.619Z,94.82
2016-09-13T02:15:40.002Z,94.38
2016-09-13T02:16:42.347Z,94.49
2016-09-13T02:17:37.694Z,94.34
2016-09-13T02:18:36.138Z,94.42
2016-09-13T02:19:29.299Z,94.67
2016-09-13T02:20:30.246Z,94.53
2016-09-13T02:21:29.733Z,94.72
2016-09-13T02:22:28.975Z,94.53
2016-09-13T02:23:37.324Z,94.38
2016-09-13T02:24:31.925Z,94.77
2016-09-13T02:25:28.155Z,94.48
2016-09-13T02:27:31.274Z,94.48
2016-09-13T02:28:32.473Z,94.39
2016-09-13T02:29:36.874Z,94.44
2016-09-13T02:30:37.831Z,94.45
2016-09-13T02:31:41.005Z,94.93
2016-09-13T02:32:34.304Z,95.31
2016-09-13T02:33:28.294Z,95.22
2016-09-13T02:35:33.825Z,95.36
2016-09-13T02:36:42.130Z,95.35
2016-09-13T02:38:50.892Z,95.01
2016-09-13T02:39:37.165Z,95.65
2016-09-13T02:40:54.460Z,95.34
2016-09-13T02:41:39.229Z,95.15
2016-09-13T02:42:41.397Z,95.25
2016-09-13T02:44:37.505Z,95.44
2016-09-13T02:45:36.828Z,95.34
2016-09-13T02:50:29.360Z,94.71
2016-09-13T02:52:29.604Z,95.01
2016-09-13T02:53:31.824Z,95.29
2016-09-13T02:54:38.159Z,94.80
2016-09-13T02:55:41.477Z,94.76
2016-09-13T02:56:28.755Z,94.94
2016-09-13T02:58:43.635Z,95.01
2016-09-13T02:59:37.043Z,94.84
2016-09-13T03:01:28.792Z,95.21
2016-09-13T03:02:34.352Z,95.08
2016-09-13T03:03:42.452Z,95.02
2016-09-13T03:04:48.870Z,95.11
2016-09-13T03:05:34.985Z,95.00
2016-09-13T03:06:34.049Z,95.22
2016-09-13T03:07:29.832Z,95.02
2016-09-13T03:08:40.196Z,95.06
2016-09-13T03:09:33.687Z,95.46
2016-09-13T03:10:39.123Z,94.93
2016-09-13T03:11:36.470Z,94.91
2016-09-13T03:12:34.683Z,94.75
2016-09-13T03:13:38.856Z,94.83
2016-09-13T03:14:36.001Z,94.78
2016-09-13T03:15:26.036Z,95.06
2016-09-13T03:16:28.545Z,94.68
2016-09-13T03:17:28.392Z,94.58
2016-09-13T03:18:28.239Z,94.55
2016-09-13T03:19:33.938Z,95.17
2016-09-13T03:20:30.699Z,95.18
2016-09-13T03:21:29.149Z,95.00
2016-09-13T03:22:41.043Z,95.05
2016-09-13T03:23:39.253Z,95.19
2016-09-13T03:24:28.497Z,94.84
2016-09-13T03:25:39.685Z,94.77
2016-09-13T03:26:32.158Z,94.72
2016-09-13T03:27:28.254Z,95.16
2016-09-13T03:28:29.388Z,94.98
2016-09-13T03:29:34.462Z,95.05
2016-09-13T03:31:34.912Z,94.86
2016-09-13T03:32:38.083Z,94.73
2016-09-13T03:33:35.181Z,94.71
2016-09-13T03:34:35.115Z,95.05
2016-09-13T03:36:37.193Z,95.03
2016-09-13T03:37:43.071Z,95.07
2016-09-13T03:38:29.226Z,94.99
2016-09-13T03:39:44.431Z,95.34
2016-09-13T03:40:46.299Z,95.16
2016-09-13T03:41:36.372Z,95.36
2016-09-13T03:42:24.824Z,95.33
2016-09-13T03:43:42.115Z,95.74
2016-09-13T03:44:36.425Z,95.62
2016-09-13T03:45:31.867Z,95.46
2016-09-13T03:46:32.036Z,95.37
2016-09-13T03:47:36.835Z,95.46
2016-09-13T03:48:24.255Z,95.68
2016-09-13T03:49:28.407Z,95.38
2016-09-13T03:50:49.732Z,95.39
2016-09-13T03:51:25.720Z,95.36
2016-09-13T03:52:42.669Z,95.20
2016-09-13T03:53:32.408Z,95.18
2016-09-13T03:54:41.700Z,95.25
2016-09-13T03:55:40.996Z,95.10
2016-09-13T03:57:41.868Z,95.33
2016-09-13T03:58:42.658Z,95.32
2016-09-13T04:00:49.501Z,95.23
2016-09-13T04:01:41.723Z,95.22
2016-09-13T04:02:36.934Z,95.40
2016-09-13T04:03:39.257Z,95.73
2016-09-13T04:04:36.588Z,95.77
2016-09-13T04:05:38.936Z,95.62
2016-09-13T04:06:36.245Z,95.38
2016-09-13T04:07:39.536Z,95.31
2016-09-13T04:08:31.574Z,95.19
2016-09-13T04:09:36.596Z,95.50
2016-09-13T04:11:36.986Z,94.97
2016-09-13T04:12:37.353Z,95.43
2016-09-13T04:13:39.664Z,95.66
2016-09-13T04:14:42.464Z,95.87
2016-09-13T04:15:35.619Z,95.41
2016-09-13T04:16:41.636Z,94.94
2016-09-13T04:17:29.096Z,95.08
2016-09-13T04:18:37.320Z,95.51
2016-09-13T04:19:33.513Z,95.74
2016-09-13T04:20:36.694Z,96.36
2016-09-13T04:21:36.450Z,96.24
2016-09-13T04:22:36.402Z,95.73
2016-09-13T04:23:44.588Z,95.86
2016-09-13T04:24:35.741Z,95.81
2016-09-13T04:25:41.659Z,96.02
2016-09-13T04:26:37.178Z,96.00
2016-09-13T04:29:40.121Z,95.34
2016-09-13T04:30:37.333Z,95.38
2016-09-13T04:31:24.619Z,95.10
2016-09-13T04:32:34.345Z,95.08
2016-09-13T04:33:34.467Z,95.06
2016-09-13T04:34:29.978Z,94.95
2016-09-13T04:35:39.308Z,95.20
2016-09-13T04:36:39.711Z,95.69
2016-09-13T04:37:26.897Z,95.74
2016-09-13T04:38:31.417Z,95.65
2016-09-13T04:39:40.118Z,95.55
2016-09-13T04:40:36.351Z,95.58
2016-09-13T04:41:41.288Z,95.56
2016-09-13T04:42:30.082Z,95.46
2016-09-13T04:43:41.860Z,95.16
2016-09-13T04:44:38.264Z,95.17
2016-09-13T04:45:28.854Z,95.47
2016-09-13T04:47:36.889Z,95.56
2016-09-13T04:48:31.415Z,95.34
2016-09-13T04:49:42.517Z,95.46
2016-09-13T04:50:41.886Z,95.15
2016-09-13T04:51:24.839Z,94.85
2016-09-13T04:52:31.356Z,95.04
2016-09-13T04:53:35.469Z,95.37
2016-09-13T04:54:28.400Z,95.93
2016-09-13T04:55:34.595Z,95.91
2016-09-13T04:56:32.059Z,95.97
2016-09-13T04:57:31.818Z,96.51
2016-09-13T04:58:35.020Z,95.87
2016-09-13T04:59:28.501Z,95.99
2016-09-13T05:00:23.932Z,95.85
2016-09-13T05:01:36.748Z,95.63
2016-09-13T05:02:38.998Z,95.63
2016-09-13T05:03:33.645Z,95.53
2016-09-13T05:04:40.938Z,95.41
2016-09-13T05:06:34.609Z,95.64
2016-09-13T05:07:41.932Z,95.43
2016-09-13T05:08:33.525Z,95.56
2016-09-13T05:10:24.307Z,95.95
2016-09-13T05:11:36.153Z,96.51
2016-09-13T05:12:40.404Z,96.37
2016-09-13T05:13:35.584Z,96.99
2016-09-13T05:16:36.338Z,97.25
2016-09-13T05:17:34.581Z,97.12
2016-09-13T05:19:34.406Z,96.80
2016-09-13T05:20:30.390Z,97.28
2016-09-13T05:21:42.663Z,97.05
2016-09-13T05:22:38.029Z,97.43
2016-09-13T05:23:33.594Z,97.65
2016-09-13T05:25:23.394Z,97.84
2016-09-13T05:26:28.509Z,97.67
2016-09-13T05:27:34.256Z,97.28
2016-09-13T05:28:24.727Z,97.13
2016-09-13T05:29:28.852Z,96.84
2016-09-13T05:30:37.265Z,97.07
2016-09-13T05:31:40.113Z,96.92
2016-09-13T05:32:33.798Z,96.90
2016-09-13T05:34:34.501Z,97.39
2016-09-13T05:35:24.599Z,97.23
2016-09-13T05:36:24.417Z,97.08
2016-09-13T05:37:24.923Z,97.49
2016-09-13T05:38:35.727Z,97.71
2016-09-13T05:39:13.916Z,97.91
2016-09-13T05:40:38.698Z,97.64
2016-09-13T05:42:25.865Z,98.29
2016-09-13T05:43:31.460Z,97.94
2016-09-13T05:44:42.346Z,97.75
2016-09-13T05:45:43.689Z,97.48
2016-09-13T05:46:28.539Z,97.24
2016-09-13T05:47:34.727Z,97.43
2016-09-13T05:48:36.409Z,97.21
2016-09-13T05:49:28.606Z,97.06
2016-09-13T05:50:32.023Z,97.35
2016-09-13T05:51:36.310Z,97.45
2016-09-13T05:52:41.133Z,97.48
2016-09-13T05:54:25.368Z,97.42
2016-09-13T05:55:28.600Z,97.12
2016-09-13T05:56:35.795Z,97.15
2016-09-13T05:57:42.045Z,97.22
2016-09-13T05:58:36.353Z,97.36
2016-09-13T05:59:24.802Z,97.49
2016-09-13T06:00:37.102Z,96.87
2016-09-13T06:01:28.356Z,96.70
2016-09-13T06:02:28.617Z,96.69
2016-09-13T06:03:30.666Z,96.46
2016-09-13T06:04:24.912Z,96.42
2016-09-13T06:05:24.492Z,96.43
2016-09-13T06:06:28.653Z,96.45
2016-09-13T06:07:28.903Z,96.51
2016-09-13T06:08:38.499Z,96.04
2016-09-13T06:09:36.865Z,95.62
2016-09-13T06:10:24.292Z,96.65
2016-09-13T06:11:37.589Z,96.81
2016-09-13T06:12:28.602Z,96.33
2016-09-13T06:13:34.013Z,96.66
2016-09-13T06:14:34.336Z,96.64
2016-09-13T06:15:28.537Z,96.25
2016-09-13T06:16:29.792Z,95.95
2016-09-13T06:17:37.173Z,96.50
2016-09-13T06:18:31.665Z,96.29
2016-09-13T06:19:38.093Z,96.14
2016-09-13T06:20:58.458Z,96.16
2016-09-13T06:23:28.910Z,95.70
2016-09-13T06:24:36.179Z,95.96
2016-09-13T06:25:31.951Z,96.03
2016-09-13T06:26:37.141Z,96.32
2016-09-13T06:27:42.006Z,96.30
2016-09-13T06:28:39.509Z,95.97
2016-09-13T06:29:34.218Z,95.86
2016-09-13T06:31:01.939Z,95.92
2016-09-13T06:31:24.409Z,95.55
2016-09-13T06:32:28.643Z,94.87
2016-09-13T06:33:35.449Z,93.34
2016-09-13T06:34:42.432Z,93.57
2016-09-13T06:35:37.783Z,94.47
2016-09-13T06:36:37.119Z,93.61
2016-09-13T06:37:34.178Z,93.12
2016-09-13T06:38:39.486Z,92.67
2016-09-13T06:39:37.411Z,93.27
2016-09-13T06:40:37.771Z,93.90
2016-09-13T06:41:24.347Z,94.31
2016-09-13T06:42:34.069Z,94.40
2016-09-13T06:44:40.970Z,93.75
2016-09-13T06:45:37.180Z,93.43
2016-09-13T06:46:31.116Z,93.05
2016-09-13T06:47:34.205Z,93.02
2016-09-13T06:48:37.516Z,92.81
2016-09-13T06:49:40.226Z,92.12
2016-09-13T06:50:37.524Z,91.75
2016-09-13T06:52:36.478Z,91.40
2016-09-13T06:53:37.839Z,91.08
2016-09-13T06:55:38.830Z,89.66
2016-09-13T06:56:34.911Z,89.31
2016-09-13T06:57:24.787Z,89.63
2016-09-13T06:58:31.760Z,90.06
2016-09-13T07:00:34.799Z,89.88
2016-09-13T07:01:43.090Z,89.23
2016-09-13T07:02:23.826Z,88.48
2016-09-13T07:03:35.197Z,88.04
2016-09-13T07:04:35.346Z,87.66
2016-09-13T07:06:39.560Z,87.67
2016-09-13T07:07:24.947Z,87.04
2016-09-13T07:08:38.963Z,86.72
2016-09-13T07:09:30.850Z,86.48
2016-09-13T07:10:51.663Z,86.01
2016-09-13T07:11:37.010Z,86.21
2016-09-13T07:13:42.112Z,85.52
2016-09-13T07:14:37.432Z,85.67
2016-09-13T07:15:37.758Z,85.49
2016-09-13T07:16:25.431Z,86.01
2016-09-13T07:17:28.515Z,85.95
2016-09-13T07:18:36.853Z,85.72
2016-09-13T07:19:24.771Z,85.45
2016-09-13T07:21:00.703Z,84.76
2016-09-13T07:21:41.387Z,84.47
2016-09-13T07:22:28.639Z,84.10
2016-09-13T07:23:28.452Z,84.28
2016-09-13T07:24:31.848Z,84.50
2016-09-13T07:25:23.455Z,83.54
2016-09-13T07:26:36.813Z,83.59
2016-09-13T07:27:36.742Z,83.45
2016-09-13T07:28:34.830Z,83.65
2016-09-13T07:29:38.184Z,83.73
2016-09-13T07:30:44.305Z,84.50
2016-09-13T07:31:30.048Z,83.93
2016-09-13T07:32:28.491Z,83.36
2016-09-13T07:33:28.729Z,82.71
2016-09-13T07:34:34.123Z,82.66
2016-09-13T07:35:34.611Z,82.22
2016-09-13T07:36:34.716Z,81.49
2016-09-13T07:37:39.823Z,81.11
2016-09-13T07:38:24.358Z,80.98
2016-09-13T07:39:24.501Z,80.85
2016-09-13T07:40:39.653Z,81.07
2016-09-13T07:41:28.829Z,80.87
2016-09-13T07:42:31.370Z,80.75
2016-09-13T07:43:30.293Z,80.75
2016-09-13T07:44:15.776Z,80.96
2016-09-13T07:45:33.712Z,80.66
2016-09-13T07:46:28.958Z,80.45
2016-09-13T07:47:28.021Z,79.51
2016-09-13T07:48:27.925Z,79.50
2016-09-13T07:49:34.212Z,79.26
2016-09-13T07:51:00.513Z,79.20
2016-09-13T07:51:32.672Z,79.24
2016-09-13T07:52:39.660Z,79.45
2016-09-13T07:55:38.350Z,79.49
2016-09-13T07:55:43.748Z,79.62
2016-09-13T07:56:23.979Z,79.38
2016-09-13T07:57:26.200Z,79.46
2016-09-13T07:58:24.855Z,79.54
2016-09-13T07:59:25.141Z,78.97
2016-09-13T08:00:24.250Z,78.98
2016-09-13T08:01:35.379Z,76.79
2016-09-13T08:02:24.465Z,74.36
2016-09-13T08:03:28.704Z,74.10
2016-09-13T08:04:34.692Z,74.32
2016-09-13T08:05:24.457Z,74.53
2016-09-13T08:06:35.690Z,74.51
2016-09-13T08:07:28.853Z,74.85
2016-09-13T08:08:43.014Z,75.07
2016-09-13T08:09:29.183Z,75.44
2016-09-13T08:10:33.388Z,75.18
2016-09-13T08:11:32.496Z,75.37
2016-09-13T08:12:28.562Z,75.12
2016-09-13T08:13:23.637Z,75.50
2016-09-13T08:14:31.058Z,75.51
2016-09-13T08:15:25.057Z,75.78
2016-09-13T08:16:34.412Z,75.53
2016-09-13T08:17:28.160Z,75.50
2016-09-13T08:18:30.821Z,75.52
2016-09-13T08:19:33.073Z,75.57
2016-09-13T08:20:24.130Z,75.19
2016-09-13T08:21:28.638Z,75.24
2016-09-13T08:22:24.142Z,75.19
2016-09-13T08:23:36.367Z,74.43
2016-09-13T08:24:34.591Z,73.59
2016-09-13T08:25:39.202Z,73.69
2016-09-13T08:26:34.169Z,73.60
2016-09-13T08:27:34.520Z,73.51
2016-09-13T08:28:29.260Z,73.28
2016-09-13T08:29:28.234Z,72.73
2016-09-13T08:30:31.763Z,72.39
2016-09-13T08:31:34.957Z,72.29
2016-09-13T08:32:24.408Z,72.53
2016-09-13T08:33:33.730Z,72.41
2016-09-13T08:34:31.959Z,72.32
2016-09-13T08:36:40.210Z,72.06
2016-09-13T08:38:24.288Z,72.22
2016-09-13T08:39:31.518Z,71.98
2016-09-13T08:41:28.214Z,71.56
2016-09-13T08:42:31.407Z,70.60
2016-09-13T08:43:32.637Z,70.50
2016-09-13T08:44:37.668Z,70.58
2016-09-13T08:45:29.496Z,70.54
2016-09-13T08:46:31.699Z,71.25
2016-09-13T08:48:34.512Z,71.66
2016-09-13T08:49:34.790Z,71.65
2016-09-13T08:50:32.004Z,71.34
2016-09-13T08:51:36.196Z,71.42
2016-09-13T08:52:39.234Z,70.90
2016-09-13T08:53:28.460Z,70.90
2016-09-13T08:54:25.174Z,70.43
2016-09-13T08:55:31.409Z,70.49
2016-09-13T08:56:34.688Z,70.23
2016-09-13T08:57:24.701Z,69.73
2016-09-13T08:58:44.329Z,70.01
2016-09-13T08:59:34.704Z,70.10
2016-09-13T09:00:34.792Z,70.13
2016-09-13T09:02:32.658Z,70.27
2016-09-13T09:03:32.920Z,70.46
2016-09-13T09:04:23.669Z,70.54
2016-09-13T09:05:32.010Z,71.07
2016-09-13T09:07:28.850Z,70.83
2016-09-13T09:08:33.135Z,70.74
2016-09-13T09:09:32.393Z,70.88
2016-09-13T09:10:31.629Z,70.66
2016-09-13T09:11:24.580Z,70.07
2016-09-13T09:12:19.165Z,69.65
2016-09-13T09:13:29.482Z,69.02
2016-09-13T09:14:31.600Z,69.33
2016-09-13T09:16:28.377Z,69.97
2016-09-13T09:17:39.734Z,69.48
2016-09-13T09:18:31.956Z,69.48
2016-09-13T09:19:31.237Z,69.92
2016-09-13T09:23:41.536Z,69.32
2016-09-13T09:24:39.705Z,69.70
2016-09-13T09:25:32.950Z,69.61
2016-09-13T09:26:43.748Z,69.31
2016-09-13T09:28:25.542Z,69.30
2016-09-13T09:33:28.558Z,68.12
2016-09-13T09:34:34.731Z,68.38
2016-09-13T09:35:28.898Z,68.43
2016-09-13T09:36:29.116Z,68.73
2016-09-13T09:37:34.815Z,68.61
2016-09-13T09:38:28.897Z,68.27
2016-09-13T09:39:32.091Z,68.22
2016-09-13T09:40:32.313Z,67.60
2016-09-13T09:42:23.026Z,67.39
2016-09-13T09:43:32.334Z,67.40
2016-09-13T09:45:32.118Z,68.47
2016-09-13T09:46:31.396Z,68.29
2016-09-13T09:47:29.958Z,68.27
2016-09-13T09:48:35.739Z,68.18
2016-09-13T09:49:32.990Z,68.16
2016-09-13T09:50:28.533Z,68.16
2016-09-13T09:53:35.050Z,68.15
2016-09-13T09:54:32.298Z,67.92
2016-09-13T09:55:32.642Z,67.82
2016-09-13T09:56:31.934Z,67.93
2016-09-13T09:58:31.889Z,67.40
2016-09-13T10:00:31.760Z,67.04
2016-09-13T10:01:32.022Z,66.09
2016-09-13T10:05:31.178Z,66.70
2016-09-13T10:06:32.410Z,66.73
2016-09-13T10:08:31.459Z,66.89
2016-09-13T10:09:24.915Z,66.92
2016-09-13T10:10:33.120Z,66.33
2016-09-13T10:11:34.279Z,66.23
2016-09-13T10:15:31.412Z,66.80
2016-09-13T10:16:31.617Z,66.33
2016-09-13T10:17:34.775Z,65.82
2016-09-13T10:18:28.966Z,65.70
2016-09-13T10:19:25.142Z,66.11
2016-09-13T10:21:18.545Z,66.45
2016-09-13T10:23:25.362Z,66.38
2016-09-13T10:24:25.320Z,65.96
2016-09-13T10:25:25.407Z,65.05
2016-09-13T10:26:34.240Z,64.55
2016-09-13T10:27:23.747Z,64.55
2016-09-13T10:30:48.189Z,65.29
2016-09-13T10:31:24.376Z,65.04
2016-09-13T10:33:33.624Z,64.90
2016-09-13T10:34:24.442Z,65.40
2016-09-13T10:36:24.390Z,64.81
2016-09-13T10:37:37.185Z,65.69
2016-09-13T10:38:31.800Z,65.59
2016-09-13T10:39:32.003Z,65.38
2016-09-13T10:41:31.858Z,64.31
2016-09-13T10:42:32.114Z,65.30
2016-09-13T10:44:18.397Z,64.24
2016-09-13T10:45:17.633Z,64.75
2016-09-13T10:46:28.145Z,65.85
2016-09-13T10:47:18.100Z,64.66
2016-09-13T10:48:20.132Z,63.28
2016-09-13T10:49:25.590Z,63.28
2016-09-13T10:50:23.678Z,63.43
2016-09-13T10:51:33.964Z,62.54
2016-09-13T10:52:23.743Z,62.30
2016-09-13T10:53:36.879Z,63.58
2016-09-13T10:54:25.677Z,64.04
2016-09-13T10:55:30.876Z,63.95
2016-09-13T10:56:34.957Z,64.10
2016-09-13T10:57:32.046Z,64.60
2016-09-13T10:58:34.838Z,63.77
2016-09-13T10:59:33.125Z,63.42
2016-09-13T11:00:58.183Z,62.73
2016-09-13T11:01:28.738Z,62.90
2016-09-13T11:06:39.844Z,63.41
2016-09-13T11:07:28.955Z,63.88
2016-09-13T11:08:40.266Z,63.21
2016-09-13T11:09:25.468Z,62.57
2016-09-13T11:11:33.411Z,61.48
2016-09-13T11:12:34.076Z,60.13
2016-09-13T11:13:33.711Z,59.96
2016-09-13T11:14:32.996Z,59.29
2016-09-13T11:15:31.197Z,59.36
2016-09-13T11:16:33.938Z,59.53
2016-09-13T11:17:31.103Z,60.59
2016-09-13T11:18:31.306Z,60.98
2016-09-13T11:19:23.606Z,61.51
2016-09-13T11:20:33.439Z,60.12
2016-09-13T11:21:32.623Z,60.06
2016-09-13T11:22:31.810Z,59.58
2016-09-13T11:23:32.160Z,58.30
2016-09-13T11:24:31.823Z,57.83
2016-09-13T11:25:33.743Z,57.84
2016-09-13T11:26:24.657Z,58.05
2016-09-13T11:28:35.541Z,57.91
2016-09-13T11:29:31.750Z,57.23
2016-09-13T11:30:32.012Z,58.13
2016-09-13T11:31:33.327Z,59.11
2016-09-13T11:32:25.186Z,60.11
2016-09-13T11:33:23.570Z,59.17
2016-09-13T11:34:31.795Z,56.71
2016-09-13T11:35:31.485Z,57.23
2016-09-13T11:36:24.208Z,57.63
2016-09-13T11:37:28.255Z,56.75
2016-09-13T11:38:38.287Z,56.83
2016-09-13T11:39:28.741Z,56.53
2016-09-13T11:40:33.024Z,57.69
2016-09-13T11:41:31.247Z,58.28
2016-09-13T11:42:35.566Z,58.10
2016-09-13T11:43:24.194Z,58.83
2016-09-13T11:44:37.896Z,58.30
2016-09-13T11:45:24.351Z,58.29
2016-09-13T11:46:36.030Z,56.93
2016-09-13T11:47:28.210Z,56.29
2016-09-13T11:49:31.080Z,57.03
2016-09-13T11:50:31.299Z,56.64
2016-09-13T11:51:24.070Z,56.20
2016-09-13T11:53:39.887Z,56.42
2016-09-13T11:54:30.103Z,56.04
2016-09-13T11:56:34.411Z,55.23
2016-09-13T11:57:39.639Z,56.19
2016-09-13T11:58:31.861Z,56.95
2016-09-13T11:59:30.079Z,56.55
2016-09-13T12:00:29.308Z,56.54
2016-09-13T12:01:34.609Z,56.44
2016-09-13T12:03:28.335Z,56.16
2016-09-13T12:04:32.595Z,56.85
2016-09-13T12:05:31.880Z,56.75
2016-09-13T12:06:31.292Z,55.82
2016-09-13T12:07:31.581Z,56.20
2016-09-13T12:08:32.900Z,57.22
2016-09-13T12:10:34.926Z,57.13
2016-09-13T12:11:23.503Z,56.63
2016-09-13T12:12:32.776Z,56.50
2016-09-13T12:13:32.067Z,56.83
2016-09-13T12:14:32.261Z,56.90
2016-09-13T12:16:52.469Z,56.37
2016-09-13T12:17:31.335Z,56.08
2016-09-13T12:18:25.511Z,56.06
2016-09-13T12:20:31.293Z,57.06
2016-09-13T12:21:34.069Z,57.17
2016-09-13T12:22:23.757Z,57.34
2016-09-13T12:23:35.466Z,56.67
2016-09-13T12:24:23.748Z,57.14
2016-09-13T12:25:25.568Z,57.20
2016-09-13T12:27:27.796Z,56.99
2016-09-13T12:28:24.771Z,56.79
2016-09-13T12:29:28.477Z,56.21
2016-09-13T12:30:25.277Z,56.68
2016-09-13T12:31:27.961Z,56.22
2016-09-13T12:32:24.274Z,56.75
2016-09-13T12:34:24.488Z,56.80
2016-09-13T12:35:29.982Z,57.08
2016-09-13T12:36:34.719Z,56.86
2016-09-13T12:37:31.975Z,57.22
2016-09-13T12:38:23.881Z,56.98
2016-09-13T12:39:26.162Z,57.23
2016-09-13T12:40:38.357Z,58.25
2016-09-13T12:41:24.319Z,58.89
2016-09-13T12:42:25.224Z,58.00
2016-09-13T12:43:28.077Z,59.21
2016-09-13T12:44:34.952Z,59.64
2016-09-13T12:45:34.278Z,59.49
2016-09-13T12:46:27.947Z,59.09
2016-09-13T12:48:24.746Z,58.55
2016-09-13T12:49:34.643Z,58.71
2016-09-13T12:50:24.954Z,57.19
2016-09-13T12:52:24.266Z,57.43
2016-09-13T12:53:54.465Z,57.28
2016-09-13T12:54:28.285Z,57.20
2016-09-13T12:55:41.481Z,56.57
2016-09-13T12:56:24.400Z,56.80
2016-09-13T12:57:24.089Z,55.55
2016-09-13T12:58:26.342Z,55.73
2016-09-13T12:59:25.532Z,55.59
2016-09-13T13:00:23.556Z,55.30
2016-09-13T13:02:35.382Z,54.33
2016-09-13T13:03:24.081Z,54.93
2016-09-13T13:04:23.291Z,54.10
2016-09-13T13:05:30.703Z,54.92
2016-09-13T13:06:34.359Z,55.14
2016-09-13T13:07:24.512Z,54.85
2016-09-13T13:08:59.527Z,54.63
2016-09-13T13:09:28.117Z,53.86
2016-09-13T13:10:33.847Z,52.87
2016-09-13T13:11:26.511Z,51.08
2016-09-13T13:12:32.746Z,52.37
2016-09-13T13:13:31.975Z,52.19
2016-09-13T13:14:34.078Z,52.77
2016-09-13T13:15:33.637Z,52.01
2016-09-13T13:16:23.716Z,51.67
2016-09-13T13:17:23.421Z,51.64
2016-09-13T13:18:34.723Z,51.93
2016-09-13T13:19:24.180Z,51.85
2016-09-13T13:20:23.830Z,51.36
2016-09-13T13:21:24.315Z,52.04
2016-09-13T13:22:18.470Z,52.68
2016-09-13T13:23:31.123Z,52.87
2016-09-13T13:24:28.837Z,52.72
2016-09-13T13:25:33.075Z,52.74
2016-09-13T13:26:31.321Z,52.56
2016-09-13T13:27:23.621Z,52.46
2016-09-13T13:28:24.068Z,52.54
2016-09-13T13:29:23.711Z,53.15
2016-09-13T13:30:29.321Z,53.41
2016-09-13T13:31:23.771Z,54.18
2016-09-13T13:32:32.990Z,54.44
2016-09-13T13:33:33.309Z,53.92
2016-09-13T13:34:27.884Z,53.84
2016-09-13T13:35:25.374Z,54.16
2016-09-13T13:36:28.617Z,55.20
2016-09-13T13:37:28.221Z,55.25
2016-09-13T13:38:37.990Z,53.13
2016-09-13T13:39:31.148Z,53.18
2016-09-13T13:40:39.520Z,52.84
2016-09-13T13:41:31.734Z,53.57
2016-09-13T13:42:32.013Z,53.44
2016-09-13T13:43:23.572Z,52.55
2016-09-13T13:44:24.079Z,52.35
2016-09-13T13:45:28.577Z,50.25
2016-09-13T13:46:24.714Z,50.05
2016-09-13T13:47:28.353Z,50.38
2016-09-13T13:48:29.129Z,51.92
2016-09-13T13:50:24.517Z,53.10
2016-09-13T13:52:29.181Z,53.73
2016-09-13T13:53:43.212Z,54.36
2016-09-13T13:54:32.454Z,53.53
2016-09-13T13:55:23.936Z,53.54
2016-09-13T13:56:30.523Z,54.06
2016-09-13T13:57:25.391Z,54.51
2016-09-13T13:59:31.036Z,54.08
2016-09-13T14:00:31.357Z,54.06
2016-09-13T14:01:31.610Z,54.18
2016-09-13T14:02:24.245Z,54.02
2016-09-13T14:04:32.641Z,53.35
2016-09-13T14:05:26.524Z,53.13
2016-09-13T14:06:25.619Z,52.91
2016-09-13T14:10:24.149Z,53.33
2016-09-13T14:11:31.685Z,53.31
2016-09-13T14:12:19.169Z,54.22
2016-09-13T14:13:31.541Z,54.07
2016-09-13T14:14:24.416Z,53.82
2016-09-13T14:15:32.755Z,53.69
2016-09-13T14:16:25.062Z,53.19
2016-09-13T14:17:24.549Z,53.03
2016-09-13T14:18:34.882Z,54.36
2016-09-13T14:19:34.294Z,54.08
2016-09-13T14:20:45.624Z,53.99
2016-09-13T14:21:33.935Z,54.37
2016-09-13T14:22:31.149Z,54.42
2016-09-13T14:24:23.929Z,54.86
2016-09-13T14:25:31.161Z,55.98
2016-09-13T14:26:31.393Z,55.07
2016-09-13T14:27:29.142Z,54.25
2016-09-13T14:28:28.538Z,54.07
2016-09-13T14:29:29.150Z,54.76
2016-09-13T14:30:23.696Z,55.21
2016-09-13T14:31:31.934Z,54.85
2016-09-13T14:32:30.112Z,54.88
2016-09-13T14:33:27.942Z,54.88
2016-09-13T14:34:23.609Z,54.95
2016-09-13T14:35:24.125Z,54.36
2016-09-13T14:36:23.983Z,54.15
2016-09-13T14:37:30.095Z,53.93
2016-09-13T14:38:31.363Z,54.09
2016-09-13T14:39:27.880Z,53.45
2016-09-13T14:40:24.639Z,53.92
2016-09-13T14:41:24.398Z,54.24
2016-09-13T14:42:30.479Z,53.44
2016-09-13T14:43:26.063Z,52.84
2016-09-13T14:44:32.377Z,52.25